sensor_id;sensor_type;location;lat;lon;timestamp;temperature;humidity
24164;DHT22;12319;49.204;8.116;2024-02-28T00:00:37;7.60;99.90
24164;DHT22;12319;49.204;8.116;2024-02-28T00:03:03;7.60;99.90
24164;DHT22;12319;49.204;8.116;2024-02-28T00:05:28;7.60;99.90
24164;DHT22;12319;49.204;8.116;2024-02-28T00:07:54;7.50;99.90
24164;DHT22;12319;49.204;8.116;2024-02-28T00:10:19;7.50;99.90
24164;DHT22;12319;49.204;8.116;2024-02-28T00:12:45;7.50;99.90
24164;DHT22;12319;49.204;8.116;2024-02-28T00:15:11;7.50;99.90
24164;DHT22;12319;49.204;8.116;2024-02-28T00:17:40;8.20;99.90
24164;DHT22;12319;49.204;8.116;2024-02-28T00:20:07;7.40;99.90
24164;DHT22;12319;49.204;8.116;2024-02-28T00:22:33;7.30;99.90
24164;DHT22;12319;49.204;8.116;2024-02-28T00:24:58;7.30;99.90
24164;DHT22;12319;49.204;8.116;2024-02-28T00:27:26;7.30;99.90
24164;DHT22;12319;49.204;8.116;2024-02-28T00:29:51;7.20;99.90
24164;DHT22;12319;49.204;8.116;2024-02-28T00:32:17;7.20;99.90
24164;DHT22;12319;49.204;8.116;2024-02-28T00:34:42;7.20;99.90
24164;DHT22;12319;49.204;8.116;2024-02-28T00:37:08;7.10;99.90
24164;DHT22;12319;49.204;8.116;2024-02-28T00:39:33;7.10;99.90
24164;DHT22;12319;49.204;8.116;2024-02-28T00:41:59;7.10;99.90
24164;DHT22;12319;49.204;8.116;2024-02-28T00:44:25;7.00;99.90
24164;DHT22;12319;49.204;8.116;2024-02-28T00:46:51;7.00;99.90
24164;DHT22;12319;49.204;8.116;2024-02-28T00:49:16;7.00;99.90
24164;DHT22;12319;49.204;8.116;2024-02-28T00:51:42;7.00;99.90
24164;DHT22;12319;49.204;8.116;2024-02-28T00:54:07;6.90;99.90
24164;DHT22;12319;49.204;8.116;2024-02-28T00:56:33;6.90;99.90
24164;DHT22;12319;49.204;8.116;2024-02-28T00:58:59;6.90;99.90
24164;DHT22;12319;49.204;8.116;2024-02-28T01:01:24;6.80;99.90
24164;DHT22;12319;49.204;8.116;2024-02-28T01:03:50;6.80;99.90
24164;DHT22;12319;49.204;8.116;2024-02-28T01:06:15;6.80;99.90
24164;DHT22;12319;49.204;8.116;2024-02-28T01:08:42;6.70;99.90
24164;DHT22;12319;49.204;8.116;2024-02-28T01:11:07;6.70;99.90
24164;DHT22;12319;49.204;8.116;2024-02-28T01:13:33;6.60;99.90
24164;DHT22;12319;49.204;8.116;2024-02-28T01:15:58;6.60;99.90
24164;DHT22;12319;49.204;8.116;2024-02-28T01:18:25;6.60;99.90
24164;DHT22;12319;49.204;8.116;2024-02-28T01:20:50;6.60;99.90
24164;DHT22;12319;49.204;8.116;2024-02-28T01:23:17;6.50;99.90
24164;DHT22;12319;49.204;8.116;2024-02-28T01:25:43;6.50;99.90
24164;DHT22;12319;49.204;8.116;2024-02-28T01:28:08;6.50;99.90
24164;DHT22;12319;49.204;8.116;2024-02-28T01:30:34;6.40;99.90
24164;DHT22;12319;49.204;8.116;2024-02-28T01:33:00;6.40;99.90
24164;DHT22;12319;49.204;8.116;2024-02-28T01:35:25;6.40;99.90
24164;DHT22;12319;49.204;8.116;2024-02-28T01:37:51;6.40;99.90
24164;DHT22;12319;49.204;8.116;2024-02-28T01:40:16;6.30;99.90
24164;DHT22;12319;49.204;8.116;2024-02-28T01:42:42;6.30;99.90
24164;DHT22;12319;49.204;8.116;2024-02-28T01:45:10;6.30;99.90
24164;DHT22;12319;49.204;8.116;2024-02-28T01:47:38;6.30;99.90
24164;DHT22;12319;49.204;8.116;2024-02-28T01:50:04;6.30;99.90
24164;DHT22;12319;49.204;8.116;2024-02-28T01:52:30;6.20;99.90
24164;DHT22;12319;49.204;8.116;2024-02-28T01:54:56;6.20;99.90
24164;DHT22;12319;49.204;8.116;2024-02-28T01:57:22;6.20;99.90
24164;DHT22;12319;49.204;8.116;2024-02-28T01:59:48;6.20;99.90
24164;DHT22;12319;49.204;8.116;2024-02-28T02:02:13;6.10;99.90
24164;DHT22;12319;49.204;8.116;2024-02-28T02:04:39;6.20;99.90
24164;DHT22;12319;49.204;8.116;2024-02-28T02:07:06;6.10;99.90
24164;DHT22;12319;49.204;8.116;2024-02-28T02:09:34;6.10;99.90
24164;DHT22;12319;49.204;8.116;2024-02-28T02:12:00;6.10;99.90
24164;DHT22;12319;49.204;8.116;2024-02-28T02:14:26;6.00;99.90
24164;DHT22;12319;49.204;8.116;2024-02-28T02:16:51;6.00;99.90
24164;DHT22;12319;49.204;8.116;2024-02-28T02:19:17;6.00;99.90
24164;DHT22;12319;49.204;8.116;2024-02-28T02:21:54;5.90;99.90
24164;DHT22;12319;49.204;8.116;2024-02-28T02:24:22;5.90;99.90
24164;DHT22;12319;49.204;8.116;2024-02-28T02:26:47;5.90;99.90
24164;DHT22;12319;49.204;8.116;2024-02-28T02:29:13;5.90;99.90
24164;DHT22;12319;49.204;8.116;2024-02-28T02:31:39;5.90;99.90
24164;DHT22;12319;49.204;8.116;2024-02-28T02:34:05;5.80;99.90
24164;DHT22;12319;49.204;8.116;2024-02-28T02:36:31;5.80;99.90
24164;DHT22;12319;49.204;8.116;2024-02-28T02:38:56;5.80;99.90
24164;DHT22;12319;49.204;8.116;2024-02-28T02:41:23;5.80;99.90
24164;DHT22;12319;49.204;8.116;2024-02-28T02:43:48;5.70;99.90
24164;DHT22;12319;49.204;8.116;2024-02-28T02:46:14;5.70;99.90
24164;DHT22;12319;49.204;8.116;2024-02-28T02:48:39;5.70;99.90
24164;DHT22;12319;49.204;8.116;2024-02-28T02:51:05;5.70;99.90
24164;DHT22;12319;49.204;8.116;2024-02-28T02:53:30;5.60;99.90
24164;DHT22;12319;49.204;8.116;2024-02-28T02:55:56;5.60;99.90
24164;DHT22;12319;49.204;8.116;2024-02-28T02:58:21;5.60;99.90
24164;DHT22;12319;49.204;8.116;2024-02-28T03:00:47;5.60;99.90
24164;DHT22;12319;49.204;8.116;2024-02-28T03:03:13;5.60;99.90
24164;DHT22;12319;49.204;8.116;2024-02-28T03:05:38;5.50;99.90
24164;DHT22;12319;49.204;8.116;2024-02-28T03:08:04;5.50;99.90
24164;DHT22;12319;49.204;8.116;2024-02-28T03:10:29;5.50;99.90
24164;DHT22;12319;49.204;8.116;2024-02-28T03:12:55;5.50;99.90
24164;DHT22;12319;49.204;8.116;2024-02-28T03:15:20;5.40;99.90
24164;DHT22;12319;49.204;8.116;2024-02-28T03:17:46;5.40;99.90
24164;DHT22;12319;49.204;8.116;2024-02-28T03:20:12;5.40;99.90
24164;DHT22;12319;49.204;8.116;2024-02-28T03:22:39;5.40;99.90
24164;DHT22;12319;49.204;8.116;2024-02-28T03:25:06;5.40;99.90
24164;DHT22;12319;49.204;8.116;2024-02-28T03:27:32;5.30;99.90
24164;DHT22;12319;49.204;8.116;2024-02-28T03:29:57;5.30;99.90
24164;DHT22;12319;49.204;8.116;2024-02-28T03:32:23;5.30;99.90
24164;DHT22;12319;49.204;8.116;2024-02-28T03:34:48;5.30;99.90
24164;DHT22;12319;49.204;8.116;2024-02-28T03:37:14;5.30;99.90
24164;DHT22;12319;49.204;8.116;2024-02-28T03:39:40;5.30;99.90
24164;DHT22;12319;49.204;8.116;2024-02-28T03:42:06;5.30;99.90
24164;DHT22;12319;49.204;8.116;2024-02-28T03:44:31;5.30;99.90
24164;DHT22;12319;49.204;8.116;2024-02-28T03:46:57;5.20;99.90
24164;DHT22;12319;49.204;8.116;2024-02-28T03:49:22;5.10;99.90
24164;DHT22;12319;49.204;8.116;2024-02-28T03:51:48;5.10;99.90
24164;DHT22;12319;49.204;8.116;2024-02-28T03:54:13;5.10;99.90
24164;DHT22;12319;49.204;8.116;2024-02-28T03:56:39;5.10;99.90
24164;DHT22;12319;49.204;8.116;2024-02-28T03:59:04;5.10;99.90
24164;DHT22;12319;49.204;8.116;2024-02-28T04:01:30;5.10;99.90
24164;DHT22;12319;49.204;8.116;2024-02-28T04:03:56;5.00;99.90
24164;DHT22;12319;49.204;8.116;2024-02-28T04:06:22;5.10;99.90
24164;DHT22;12319;49.204;8.116;2024-02-28T04:08:47;5.00;99.90
24164;DHT22;12319;49.204;8.116;2024-02-28T04:11:13;5.00;99.90
24164;DHT22;12319;49.204;8.116;2024-02-28T04:13:39;5.00;99.90
24164;DHT22;12319;49.204;8.116;2024-02-28T04:16:05;5.00;99.90
24164;DHT22;12319;49.204;8.116;2024-02-28T04:18:31;4.90;99.90
24164;DHT22;12319;49.204;8.116;2024-02-28T04:20:56;4.90;99.90
24164;DHT22;12319;49.204;8.116;2024-02-28T04:23:22;4.90;99.90
24164;DHT22;12319;49.204;8.116;2024-02-28T04:25:47;4.90;99.90
24164;DHT22;12319;49.204;8.116;2024-02-28T04:28:13;4.90;99.90
24164;DHT22;12319;49.204;8.116;2024-02-28T04:30:39;6.00;99.90
24164;DHT22;12319;49.204;8.116;2024-02-28T04:33:04;4.90;99.90
24164;DHT22;12319;49.204;8.116;2024-02-28T04:35:30;5.40;99.90
24164;DHT22;12319;49.204;8.116;2024-02-28T04:37:55;4.80;99.90
24164;DHT22;12319;49.204;8.116;2024-02-28T04:40:21;4.80;99.90
24164;DHT22;12319;49.204;8.116;2024-02-28T04:42:47;4.80;99.90
24164;DHT22;12319;49.204;8.116;2024-02-28T04:45:12;4.80;99.90
24164;DHT22;12319;49.204;8.116;2024-02-28T04:47:38;4.70;99.90
24164;DHT22;12319;49.204;8.116;2024-02-28T04:50:04;4.70;99.90
24164;DHT22;12319;49.204;8.116;2024-02-28T04:52:31;4.70;99.90
24164;DHT22;12319;49.204;8.116;2024-02-28T04:54:57;4.70;99.90
24164;DHT22;12319;49.204;8.116;2024-02-28T04:57:22;4.70;99.90
24164;DHT22;12319;49.204;8.116;2024-02-28T04:59:48;4.70;99.90
24164;DHT22;12319;49.204;8.116;2024-02-28T05:02:14;4.70;99.90
24164;DHT22;12319;49.204;8.116;2024-02-28T05:04:40;4.70;99.90
24164;DHT22;12319;49.204;8.116;2024-02-28T05:07:05;4.70;99.90
24164;DHT22;12319;49.204;8.116;2024-02-28T05:09:33;4.70;99.90
24164;DHT22;12319;49.204;8.116;2024-02-28T05:11:59;4.60;99.90
24164;DHT22;12319;49.204;8.116;2024-02-28T05:14:24;4.60;99.90
24164;DHT22;12319;49.204;8.116;2024-02-28T05:16:50;4.60;99.90
24164;DHT22;12319;49.204;8.116;2024-02-28T05:19:16;4.70;99.90
24164;DHT22;12319;49.204;8.116;2024-02-28T05:21:45;4.60;99.90
24164;DHT22;12319;49.204;8.116;2024-02-28T05:24:11;4.60;99.90
24164;DHT22;12319;49.204;8.116;2024-02-28T05:26:37;4.60;99.90
24164;DHT22;12319;49.204;8.116;2024-02-28T05:29:03;4.60;99.90
24164;DHT22;12319;49.204;8.116;2024-02-28T05:31:29;4.60;99.90
24164;DHT22;12319;49.204;8.116;2024-02-28T05:33:58;4.50;99.90
24164;DHT22;12319;49.204;8.116;2024-02-28T05:36:26;4.50;99.90
24164;DHT22;12319;49.204;8.116;2024-02-28T05:38:53;4.50;99.90
24164;DHT22;12319;49.204;8.116;2024-02-28T05:41:19;4.50;99.90
24164;DHT22;12319;49.204;8.116;2024-02-28T05:43:46;4.60;99.90
24164;DHT22;12319;49.204;8.116;2024-02-28T05:46:12;4.50;99.90
24164;DHT22;12319;49.204;8.116;2024-02-28T05:48:40;4.40;99.90
24164;DHT22;12319;49.204;8.116;2024-02-28T05:51:05;4.40;99.90
24164;DHT22;12319;49.204;8.116;2024-02-28T05:53:31;4.40;99.90
24164;DHT22;12319;49.204;8.116;2024-02-28T05:56:04;4.30;99.90
24164;DHT22;12319;49.204;8.116;2024-02-28T05:58:30;4.30;99.90
24164;DHT22;12319;49.204;8.116;2024-02-28T06:00:56;4.30;99.90
24164;DHT22;12319;49.204;8.116;2024-02-28T06:03:22;4.30;99.90
24164;DHT22;12319;49.204;8.116;2024-02-28T06:05:47;4.00;99.90
24164;DHT22;12319;49.204;8.116;2024-02-28T06:08:13;4.30;99.90
24164;DHT22;12319;49.204;8.116;2024-02-28T06:10:39;4.20;99.90
24164;DHT22;12319;49.204;8.116;2024-02-28T06:13:05;4.20;99.90
24164;DHT22;12319;49.204;8.116;2024-02-28T06:15:30;4.30;99.90
24164;DHT22;12319;49.204;8.116;2024-02-28T06:17:59;4.30;99.90
24164;DHT22;12319;49.204;8.116;2024-02-28T06:20:26;4.30;99.90
24164;DHT22;12319;49.204;8.116;2024-02-28T06:22:52;4.30;99.90
24164;DHT22;12319;49.204;8.116;2024-02-28T06:25:18;4.30;99.90
24164;DHT22;12319;49.204;8.116;2024-02-28T06:27:45;4.30;99.90
24164;DHT22;12319;49.204;8.116;2024-02-28T06:30:11;4.40;99.90
24164;DHT22;12319;49.204;8.116;2024-02-28T06:32:38;4.40;99.90
24164;DHT22;12319;49.204;8.116;2024-02-28T06:35:04;4.40;99.90
24164;DHT22;12319;49.204;8.116;2024-02-28T06:37:30;4.50;99.90
24164;DHT22;12319;49.204;8.116;2024-02-28T06:39:55;4.50;99.90
24164;DHT22;12319;49.204;8.116;2024-02-28T06:42:21;4.50;99.90
24164;DHT22;12319;49.204;8.116;2024-02-28T06:44:46;4.60;99.90
24164;DHT22;12319;49.204;8.116;2024-02-28T06:47:12;4.60;99.90
24164;DHT22;12319;49.204;8.116;2024-02-28T06:49:37;4.60;99.90
24164;DHT22;12319;49.204;8.116;2024-02-28T06:52:03;4.70;99.90
24164;DHT22;12319;49.204;8.116;2024-02-28T06:54:29;4.80;99.90
24164;DHT22;12319;49.204;8.116;2024-02-28T06:56:55;4.80;99.90
24164;DHT22;12319;49.204;8.116;2024-02-28T06:59:20;4.90;99.90
24164;DHT22;12319;49.204;8.116;2024-02-28T07:01:46;5.00;99.90
24164;DHT22;12319;49.204;8.116;2024-02-28T07:04:12;5.00;99.90
24164;DHT22;12319;49.204;8.116;2024-02-28T07:06:37;5.20;99.90
24164;DHT22;12319;49.204;8.116;2024-02-28T07:09:03;5.20;99.90
24164;DHT22;12319;49.204;8.116;2024-02-28T07:11:28;5.30;99.90
24164;DHT22;12319;49.204;8.116;2024-02-28T07:13:54;5.40;99.90
24164;DHT22;12319;49.204;8.116;2024-02-28T07:16:22;5.50;99.90
24164;DHT22;12319;49.204;8.116;2024-02-28T07:18:48;5.60;99.90
24164;DHT22;12319;49.204;8.116;2024-02-28T07:21:13;5.70;99.90
24164;DHT22;12319;49.204;8.116;2024-02-28T07:23:40;5.70;99.90
24164;DHT22;12319;49.204;8.116;2024-02-28T07:26:13;5.90;99.90
24164;DHT22;12319;49.204;8.116;2024-02-28T07:28:38;5.80;99.90
24164;DHT22;12319;49.204;8.116;2024-02-28T07:31:04;5.90;99.90
24164;DHT22;12319;49.204;8.116;2024-02-28T07:33:30;6.10;99.90
24164;DHT22;12319;49.204;8.116;2024-02-28T07:35:56;6.20;99.90
24164;DHT22;12319;49.204;8.116;2024-02-28T07:38:26;6.40;99.90
24164;DHT22;12319;49.204;8.116;2024-02-28T07:40:53;7.40;99.90
24164;DHT22;12319;49.204;8.116;2024-02-28T07:43:18;8.10;99.90
24164;DHT22;12319;49.204;8.116;2024-02-28T07:45:44;6.80;99.90
24164;DHT22;12319;49.204;8.116;2024-02-28T07:48:09;6.90;99.90
24164;DHT22;12319;49.204;8.116;2024-02-28T07:50:35;7.10;99.90
24164;DHT22;12319;49.204;8.116;2024-02-28T07:53:00;7.20;99.90
24164;DHT22;12319;49.204;8.116;2024-02-28T07:55:26;7.40;99.90
24164;DHT22;12319;49.204;8.116;2024-02-28T07:57:52;7.50;99.90
24164;DHT22;12319;49.204;8.116;2024-02-28T08:00:18;7.70;99.90
24164;DHT22;12319;49.204;8.116;2024-02-28T08:02:45;7.80;99.90
24164;DHT22;12319;49.204;8.116;2024-02-28T08:05:11;7.90;99.90
24164;DHT22;12319;49.204;8.116;2024-02-28T08:07:36;8.00;99.90
24164;DHT22;12319;49.204;8.116;2024-02-28T08:10:03;8.20;99.90
24164;DHT22;12319;49.204;8.116;2024-02-28T08:12:30;8.30;99.90
24164;DHT22;12319;49.204;8.116;2024-02-28T08:14:56;8.50;99.90
24164;DHT22;12319;49.204;8.116;2024-02-28T08:17:22;8.80;99.90
24164;DHT22;12319;49.204;8.116;2024-02-28T08:19:47;9.50;99.90
24164;DHT22;12319;49.204;8.116;2024-02-28T08:22:13;10.70;99.90
24164;DHT22;12319;49.204;8.116;2024-02-28T08:24:38;12.20;99.90
24164;DHT22;12319;49.204;8.116;2024-02-28T08:27:04;13.80;96.00
24164;DHT22;12319;49.204;8.116;2024-02-28T08:29:29;14.80;90.50
24164;DHT22;12319;49.204;8.116;2024-02-28T08:31:55;15.80;85.20
24164;DHT22;12319;49.204;8.116;2024-02-28T08:34:21;16.60;79.80
24164;DHT22;12319;49.204;8.116;2024-02-28T08:36:46;17.40;72.20
24164;DHT22;12319;49.204;8.116;2024-02-28T08:39:12;18.40;69.90
24164;DHT22;12319;49.204;8.116;2024-02-28T08:41:37;19.40;68.50
24164;DHT22;12319;49.204;8.116;2024-02-28T08:44:03;20.10;67.80
24164;DHT22;12319;49.204;8.116;2024-02-28T08:46:28;20.80;66.20
24164;DHT22;12319;49.204;8.116;2024-02-28T08:48:54;21.40;63.40
24164;DHT22;12319;49.204;8.116;2024-02-28T08:51:19;22.00;59.00
24164;DHT22;12319;49.204;8.116;2024-02-28T08:53:45;22.50;60.00
24164;DHT22;12319;49.204;8.116;2024-02-28T08:56:11;22.90;60.40
24164;DHT22;12319;49.204;8.116;2024-02-28T08:58:36;23.30;62.00
24164;DHT22;12319;49.204;8.116;2024-02-28T09:01:03;23.60;58.40
24164;DHT22;12319;49.204;8.116;2024-02-28T09:03:29;23.70;56.60
24164;DHT22;12319;49.204;8.116;2024-02-28T09:05:55;23.80;56.10
24164;DHT22;12319;49.204;8.116;2024-02-28T09:08:20;24.00;56.90
24164;DHT22;12319;49.204;8.116;2024-02-28T09:10:46;24.20;56.40
24164;DHT22;12319;49.204;8.116;2024-02-28T09:13:12;24.30;54.60
24164;DHT22;12319;49.204;8.116;2024-02-28T09:15:38;24.20;55.20
24164;DHT22;12319;49.204;8.116;2024-02-28T09:18:04;24.40;54.70
24164;DHT22;12319;49.204;8.116;2024-02-28T09:20:30;24.40;54.50
24164;DHT22;12319;49.204;8.116;2024-02-28T09:22:55;24.50;53.80
24164;DHT22;12319;49.204;8.116;2024-02-28T09:25:21;24.60;53.80
24164;DHT22;12319;49.204;8.116;2024-02-28T09:27:47;24.70;54.00
24164;DHT22;12319;49.204;8.116;2024-02-28T09:30:13;24.70;53.40
24164;DHT22;12319;49.204;8.116;2024-02-28T09:32:39;24.90;52.90
24164;DHT22;12319;49.204;8.116;2024-02-28T09:35:05;25.00;53.00
24164;DHT22;12319;49.204;8.116;2024-02-28T09:37:32;25.00;51.60
24164;DHT22;12319;49.204;8.116;2024-02-28T09:39:58;24.80;53.10
24164;DHT22;12319;49.204;8.116;2024-02-28T09:42:24;24.60;51.50
24164;DHT22;12319;49.204;8.116;2024-02-28T09:44:49;24.40;50.80
24164;DHT22;12319;49.204;8.116;2024-02-28T09:47:15;24.40;51.10
24164;DHT22;12319;49.204;8.116;2024-02-28T09:49:42;24.20;50.50
24164;DHT22;12319;49.204;8.116;2024-02-28T09:52:08;23.90;49.50
24164;DHT22;12319;49.204;8.116;2024-02-28T09:54:34;23.60;49.60
24164;DHT22;12319;49.204;8.116;2024-02-28T09:56:59;23.20;49.20
24164;DHT22;12319;49.204;8.116;2024-02-28T09:59:25;23.00;49.50
24164;DHT22;12319;49.204;8.116;2024-02-28T10:01:58;22.80;48.70
24164;DHT22;12319;49.204;8.116;2024-02-28T10:04:29;22.50;47.10
24164;DHT22;12319;49.204;8.116;2024-02-28T10:06:56;21.80;48.10
24164;DHT22;12319;49.204;8.116;2024-02-28T10:09:21;20.90;48.80
24164;DHT22;12319;49.204;8.116;2024-02-28T10:11:47;19.80;48.50
24164;DHT22;12319;49.204;8.116;2024-02-28T10:14:17;18.90;49.50
24164;DHT22;12319;49.204;8.116;2024-02-28T10:16:44;18.00;50.30
24164;DHT22;12319;49.204;8.116;2024-02-28T10:19:09;17.30;51.40
24164;DHT22;12319;49.204;8.116;2024-02-28T10:21:35;16.60;51.90
24164;DHT22;12319;49.204;8.116;2024-02-28T10:24:00;16.20;52.40
24164;DHT22;12319;49.204;8.116;2024-02-28T10:26:26;15.60;53.00
24164;DHT22;12319;49.204;8.116;2024-02-28T10:28:52;15.20;53.80
24164;DHT22;12319;49.204;8.116;2024-02-28T10:31:17;15.00;54.60
24164;DHT22;12319;49.204;8.116;2024-02-28T10:33:43;14.70;55.20
24164;DHT22;12319;49.204;8.116;2024-02-28T10:36:09;14.60;55.70
24164;DHT22;12319;49.204;8.116;2024-02-28T10:38:35;14.50;56.00
24164;DHT22;12319;49.204;8.116;2024-02-28T10:41:02;14.40;56.30
24164;DHT22;12319;49.204;8.116;2024-02-28T10:43:31;14.40;56.60
24164;DHT22;12319;49.204;8.116;2024-02-28T10:46:00;14.20;56.20
24164;DHT22;12319;49.204;8.116;2024-02-28T10:48:26;14.20;56.70
24164;DHT22;12319;49.204;8.116;2024-02-28T10:50:52;14.10;57.10
24164;DHT22;12319;49.204;8.116;2024-02-28T10:53:22;14.10;57.10
24164;DHT22;12319;49.204;8.116;2024-02-28T10:55:54;13.90;57.40
24164;DHT22;12319;49.204;8.116;2024-02-28T10:58:22;13.80;57.40
24164;DHT22;12319;49.204;8.116;2024-02-28T11:00:50;13.70;57.70
24164;DHT22;12319;49.204;8.116;2024-02-28T11:03:17;13.60;57.90
24164;DHT22;12319;49.204;8.116;2024-02-28T11:05:43;13.60;57.90
24164;DHT22;12319;49.204;8.116;2024-02-28T11:08:23;13.60;58.10
24164;DHT22;12319;49.204;8.116;2024-02-28T11:10:56;13.50;58.30
24164;DHT22;12319;49.204;8.116;2024-02-28T11:13:26;13.40;58.50
24164;DHT22;12319;49.204;8.116;2024-02-28T11:15:53;13.40;59.20
24164;DHT22;12319;49.204;8.116;2024-02-28T11:18:20;13.30;58.80
24164;DHT22;12319;49.204;8.116;2024-02-28T11:20:46;13.20;58.90
24164;DHT22;12319;49.204;8.116;2024-02-28T11:23:13;13.20;58.90
24164;DHT22;12319;49.204;8.116;2024-02-28T11:25:40;13.10;59.20
24164;DHT22;12319;49.204;8.116;2024-02-28T11:28:06;13.80;60.00
24164;DHT22;12319;49.204;8.116;2024-02-28T11:30:32;13.00;60.00
24164;DHT22;12319;49.204;8.116;2024-02-28T11:32:58;13.40;60.20
24164;DHT22;12319;49.204;8.116;2024-02-28T11:35:25;13.00;60.10
24164;DHT22;12319;49.204;8.116;2024-02-28T11:37:50;13.30;60.30
24164;DHT22;12319;49.204;8.116;2024-02-28T11:40:19;13.00;60.30
24164;DHT22;12319;49.204;8.116;2024-02-28T11:42:44;13.00;60.40
24164;DHT22;12319;49.204;8.116;2024-02-28T11:45:10;12.90;60.30
24164;DHT22;12319;49.204;8.116;2024-02-28T11:47:36;12.80;60.30
24164;DHT22;12319;49.204;8.116;2024-02-28T11:50:03;12.80;60.70
24164;DHT22;12319;49.204;8.116;2024-02-28T11:52:32;12.80;60.80
24164;DHT22;12319;49.204;8.116;2024-02-28T11:54:57;12.80;61.00
24164;DHT22;12319;49.204;8.116;2024-02-28T11:57:23;12.80;61.10
24164;DHT22;12319;49.204;8.116;2024-02-28T11:59:49;12.90;61.30
24164;DHT22;12319;49.204;8.116;2024-02-28T12:02:15;12.80;61.10
24164;DHT22;12319;49.204;8.116;2024-02-28T12:04:45;12.90;61.20
24164;DHT22;12319;49.204;8.116;2024-02-28T12:07:11;12.90;61.30
24164;DHT22;12319;49.204;8.116;2024-02-28T12:09:37;13.00;61.30
24164;DHT22;12319;49.204;8.116;2024-02-28T12:12:06;13.10;61.40
24164;DHT22;12319;49.204;8.116;2024-02-28T12:14:40;13.20;61.50
24164;DHT22;12319;49.204;8.116;2024-02-28T12:17:08;13.80;61.90
24164;DHT22;12319;49.204;8.116;2024-02-28T12:19:35;13.50;61.10
24164;DHT22;12319;49.204;8.116;2024-02-28T12:22:01;13.70;61.10
24164;DHT22;12319;49.204;8.116;2024-02-28T12:24:26;13.60;60.80
24164;DHT22;12319;49.204;8.116;2024-02-28T12:26:52;13.70;60.90
24164;DHT22;12319;49.204;8.116;2024-02-28T12:29:18;13.80;61.10
24164;DHT22;12319;49.204;8.116;2024-02-28T12:31:43;13.80;60.80
24164;DHT22;12319;49.204;8.116;2024-02-28T12:34:09;14.10;60.50
24164;DHT22;12319;49.204;8.116;2024-02-28T12:36:34;14.30;60.30
24164;DHT22;12319;49.204;8.116;2024-02-28T12:39:00;14.30;60.10
24164;DHT22;12319;49.204;8.116;2024-02-28T12:41:27;14.60;60.10
24164;DHT22;12319;49.204;8.116;2024-02-28T12:43:52;14.60;60.00
24164;DHT22;12319;49.204;8.116;2024-02-28T12:46:18;14.90;60.00
24164;DHT22;12319;49.204;8.116;2024-02-28T12:48:43;15.00;59.60
24164;DHT22;12319;49.204;8.116;2024-02-28T12:51:11;15.10;59.30
24164;DHT22;12319;49.204;8.116;2024-02-28T12:53:39;15.20;59.00
24164;DHT22;12319;49.204;8.116;2024-02-28T12:56:05;15.20;58.60
24164;DHT22;12319;49.204;8.116;2024-02-28T12:58:32;15.30;58.40
24164;DHT22;12319;49.204;8.116;2024-02-28T13:00:57;15.40;58.30
24164;DHT22;12319;49.204;8.116;2024-02-28T13:03:23;15.50;58.40
24164;DHT22;12319;49.204;8.116;2024-02-28T13:05:48;15.50;58.30
24164;DHT22;12319;49.204;8.116;2024-02-28T13:08:14;15.60;58.20
24164;DHT22;12319;49.204;8.116;2024-02-28T13:10:40;15.80;57.70
24164;DHT22;12319;49.204;8.116;2024-02-28T13:13:07;15.70;56.70
24164;DHT22;12319;49.204;8.116;2024-02-28T13:15:33;16.30;57.80
24164;DHT22;12319;49.204;8.116;2024-02-28T13:17:59;15.70;57.10
24164;DHT22;12319;49.204;8.116;2024-02-28T13:20:26;15.70;57.00
24164;DHT22;12319;49.204;8.116;2024-02-28T13:22:52;15.70;57.50
24164;DHT22;12319;49.204;8.116;2024-02-28T13:25:18;15.70;57.30
24164;DHT22;12319;49.204;8.116;2024-02-28T13:27:45;15.80;57.60
24164;DHT22;12319;49.204;8.116;2024-02-28T13:30:12;15.70;56.70
24164;DHT22;12319;49.204;8.116;2024-02-28T13:32:37;15.70;56.90
24164;DHT22;12319;49.204;8.116;2024-02-28T13:35:03;16.70;57.10
24164;DHT22;12319;49.204;8.116;2024-02-28T13:37:29;15.60;56.40
24164;DHT22;12319;49.204;8.116;2024-02-28T13:39:54;15.40;56.60
24164;DHT22;12319;49.204;8.116;2024-02-28T13:42:21;15.50;57.10
24164;DHT22;12319;49.204;8.116;2024-02-28T13:44:49;15.20;57.40
24164;DHT22;12319;49.204;8.116;2024-02-28T13:47:15;15.10;57.60
24164;DHT22;12319;49.204;8.116;2024-02-28T13:49:41;15.20;56.60
24164;DHT22;12319;49.204;8.116;2024-02-28T13:52:06;15.00;56.60
24164;DHT22;12319;49.204;8.116;2024-02-28T13:54:32;14.90;57.00
24164;DHT22;12319;49.204;8.116;2024-02-28T13:56:58;14.90;57.40
24164;DHT22;12319;49.204;8.116;2024-02-28T13:59:24;14.80;57.40
24164;DHT22;12319;49.204;8.116;2024-02-28T14:01:50;14.70;57.50
24164;DHT22;12319;49.204;8.116;2024-02-28T14:04:16;14.60;57.70
24164;DHT22;12319;49.204;8.116;2024-02-28T14:06:41;14.50;58.00
24164;DHT22;12319;49.204;8.116;2024-02-28T14:09:07;14.30;57.80
24164;DHT22;12319;49.204;8.116;2024-02-28T14:11:32;15.00;59.10
24164;DHT22;12319;49.204;8.116;2024-02-28T14:13:58;14.00;58.40
24164;DHT22;12319;49.204;8.116;2024-02-28T14:16:24;13.90;58.00
24164;DHT22;12319;49.204;8.116;2024-02-28T14:18:51;13.80;58.30
24164;DHT22;12319;49.204;8.116;2024-02-28T14:21:16;13.70;58.60
24164;DHT22;12319;49.204;8.116;2024-02-28T14:23:42;13.60;57.80
24164;DHT22;12319;49.204;8.116;2024-02-28T14:26:08;13.60;57.80
24164;DHT22;12319;49.204;8.116;2024-02-28T14:28:34;13.50;57.70
24164;DHT22;12319;49.204;8.116;2024-02-28T14:31:00;13.40;58.10
24164;DHT22;12319;49.204;8.116;2024-02-28T14:33:25;13.30;58.50
24164;DHT22;12319;49.204;8.116;2024-02-28T14:35:51;13.30;58.20
24164;DHT22;12319;49.204;8.116;2024-02-28T14:38:17;13.90;58.20
24164;DHT22;12319;49.204;8.116;2024-02-28T14:40:43;13.10;57.10
24164;DHT22;12319;49.204;8.116;2024-02-28T14:43:08;13.00;57.70
24164;DHT22;12319;49.204;8.116;2024-02-28T14:45:34;13.00;57.80
24164;DHT22;12319;49.204;8.116;2024-02-28T14:48:00;13.00;58.30
24164;DHT22;12319;49.204;8.116;2024-02-28T14:50:26;12.90;57.90
24164;DHT22;12319;49.204;8.116;2024-02-28T14:52:51;12.80;58.00
24164;DHT22;12319;49.204;8.116;2024-02-28T14:55:17;12.80;58.30
24164;DHT22;12319;49.204;8.116;2024-02-28T14:57:43;12.70;57.80
24164;DHT22;12319;49.204;8.116;2024-02-28T15:00:09;13.60;58.80
24164;DHT22;12319;49.204;8.116;2024-02-28T15:02:39;12.70;58.10
24164;DHT22;12319;49.204;8.116;2024-02-28T15:05:05;13.90;59.40
24164;DHT22;12319;49.204;8.116;2024-02-28T15:07:32;12.60;58.20
24164;DHT22;12319;49.204;8.116;2024-02-28T15:09:57;12.70;59.00
24164;DHT22;12319;49.204;8.116;2024-02-28T15:12:26;12.60;57.80
24164;DHT22;12319;49.204;8.116;2024-02-28T15:14:52;12.60;58.30
24164;DHT22;12319;49.204;8.116;2024-02-28T15:17:19;12.60;58.30
24164;DHT22;12319;49.204;8.116;2024-02-28T15:19:45;12.60;58.70
24164;DHT22;12319;49.204;8.116;2024-02-28T15:22:11;12.70;58.70
24164;DHT22;12319;49.204;8.116;2024-02-28T15:24:36;12.70;58.90
24164;DHT22;12319;49.204;8.116;2024-02-28T15:27:03;12.60;58.70
24164;DHT22;12319;49.204;8.116;2024-02-28T15:29:29;12.60;58.80
24164;DHT22;12319;49.204;8.116;2024-02-28T15:31:54;12.60;58.90